createdAt,value
2023-02-04T00:00:19.319Z,2.27
2023-02-04T00:02:21.549Z,2.50
2023-02-04T00:04:23.767Z,2.20
2023-02-04T00:06:26.084Z,2.40
2023-02-04T00:08:28.665Z,2.80
2023-02-04T00:10:31.108Z,2.30
2023-02-04T00:12:34.506Z,2.83
2023-02-04T00:14:36.706Z,2.00
2023-02-04T00:16:38.971Z,2.40
2023-02-04T00:18:41.177Z,2.57
2023-02-04T00:20:43.351Z,2.37
2023-02-04T00:22:45.817Z,2.40
2023-02-04T00:24:50.029Z,2.43
2023-02-04T00:26:52.189Z,2.07
2023-02-04T00:28:54.460Z,2.13
2023-02-04T00:30:56.747Z,2.40
2023-02-04T00:32:59.079Z,2.63
2023-02-04T00:35:04.715Z,2.73
2023-02-04T00:37:07.396Z,2.57
2023-02-04T00:39:09.695Z,2.10
2023-02-04T00:41:11.941Z,2.50
2023-02-04T00:43:14.489Z,2.30
2023-02-04T00:45:16.704Z,3.13
2023-02-04T00:47:19.798Z,3.47
2023-02-04T00:49:21.943Z,2.67
2023-02-04T00:51:24.151Z,2.80
2023-02-04T00:53:26.482Z,2.53
2023-02-04T00:55:28.670Z,2.57
2023-02-04T00:57:30.901Z,2.50
2023-02-04T00:59:33.198Z,2.90
2023-02-04T01:01:35.475Z,2.70
2023-02-04T01:03:37.695Z,2.87
2023-02-04T01:05:39.868Z,2.50
2023-02-04T01:07:42.115Z,2.67
2023-02-04T01:09:44.868Z,3.00
2023-02-04T01:11:47.106Z,2.60
2023-02-04T01:13:49.287Z,2.70
2023-02-04T01:15:52.080Z,2.80
2023-02-04T01:17:54.348Z,2.93
2023-02-04T01:19:56.499Z,2.50
2023-02-04T01:21:58.803Z,2.53
2023-02-04T01:24:01.018Z,3.07
2023-02-04T01:26:03.636Z,3.00
2023-02-04T01:28:05.891Z,2.90
2023-02-04T01:30:10.015Z,3.90
2023-02-04T01:32:12.202Z,2.60
2023-02-04T01:34:14.426Z,2.70
2023-02-04T01:36:21.782Z,2.80
2023-02-04T01:38:24.049Z,3.40
2023-02-04T01:40:26.225Z,2.77
2023-02-04T01:42:29.248Z,3.30
2023-02-04T01:44:31.562Z,3.30
2023-02-04T01:46:35.741Z,3.00
2023-02-04T01:48:38.313Z,3.27
2023-02-04T01:50:40.786Z,2.87
2023-02-04T01:52:44.759Z,3.30
2023-02-04T01:54:47.058Z,3.37
2023-02-04T01:56:51.774Z,3.00
2023-02-04T01:58:55.677Z,3.60
2023-02-04T02:00:58.135Z,3.23
2023-02-04T02:03:00.715Z,2.93
2023-02-04T02:05:02.986Z,3.20
2023-02-04T02:07:06.671Z,2.70
2023-02-04T02:09:09.332Z,3.00
2023-02-04T02:11:11.523Z,3.27
2023-02-04T02:13:16.874Z,3.00
2023-02-04T02:15:19.244Z,2.83
2023-02-04T02:17:21.473Z,2.93
2023-02-04T02:19:29.537Z,3.37
2023-02-04T02:21:37.364Z,3.13
2023-02-04T02:23:49.960Z,3.13
2023-02-04T02:25:53.684Z,2.50
2023-02-04T02:27:57.815Z,3.57
2023-02-04T02:30:01.003Z,2.90
2023-02-04T02:32:03.313Z,2.87
2023-02-04T02:34:05.554Z,3.30
2023-02-04T02:36:08.210Z,4.07
2023-02-04T02:38:11.982Z,3.00
2023-02-04T02:40:16.113Z,2.93
2023-02-04T02:42:18.916Z,2.80
2023-02-04T02:44:21.736Z,2.77
2023-02-04T02:46:24.018Z,3.03
2023-02-04T02:48:26.361Z,3.07
2023-02-04T02:50:30.624Z,3.10
2023-02-04T02:52:35.073Z,2.80
2023-02-04T02:54:37.409Z,3.00
2023-02-04T02:56:40.751Z,2.90
2023-02-04T02:58:43.149Z,3.30
2023-02-04T03:00:45.509Z,2.80
2023-02-04T03:03:13.116Z,2.60
2023-02-04T03:05:15.535Z,2.17
2023-02-04T03:07:19.672Z,2.20
2023-02-04T03:09:22.148Z,2.80
2023-02-04T03:11:26.280Z,2.43
2023-02-04T03:13:28.971Z,2.20
2023-02-04T03:15:32.135Z,2.60
2023-02-04T03:17:35.835Z,2.57
2023-02-04T03:19:39.177Z,2.30
2023-02-04T03:21:41.919Z,2.37
2023-02-04T03:23:44.310Z,2.60
2023-02-04T03:25:46.520Z,2.03
2023-02-04T03:27:48.759Z,2.30
2023-02-04T03:29:51.381Z,2.33
2023-02-04T03:31:55.482Z,2.20
2023-02-04T03:33:57.885Z,2.50
2023-02-04T03:36:00.091Z,2.60
2023-02-04T03:38:02.357Z,2.60
2023-02-04T03:40:04.914Z,2.60
2023-02-04T03:42:07.448Z,2.20
2023-02-04T03:44:09.647Z,2.20
2023-02-04T03:46:11.963Z,2.20
2023-02-04T03:48:14.316Z,2.40
2023-02-04T03:50:16.649Z,2.30
2023-02-04T03:52:20.328Z,2.07
2023-02-04T03:54:22.646Z,2.03
2023-02-04T03:56:24.795Z,1.90
2023-02-04T03:58:27.470Z,2.00
2023-02-04T04:00:30.348Z,2.23
2023-02-04T04:02:32.757Z,2.37
2023-02-04T04:04:35.250Z,1.97
2023-02-04T04:06:37.369Z,2.00
2023-02-04T04:08:39.620Z,2.60
2023-02-04T04:10:42.115Z,2.17
2023-02-04T04:12:44.387Z,2.53
2023-02-04T04:14:46.588Z,2.60
2023-02-04T04:16:48.842Z,2.40
2023-02-04T04:18:51.027Z,2.40
2023-02-04T04:20:53.257Z,2.03
2023-02-04T04:22:55.487Z,2.83
2023-02-04T04:24:57.820Z,2.83
2023-02-04T04:27:00.036Z,2.77
2023-02-04T04:29:02.149Z,2.33
2023-02-04T04:31:04.619Z,2.57
2023-02-04T04:33:07.033Z,2.70
2023-02-04T04:35:09.346Z,2.67
2023-02-04T04:37:11.523Z,2.80
2023-02-04T04:39:13.698Z,2.10
2023-02-04T04:41:15.865Z,3.00
2023-02-04T04:43:18.233Z,3.00
2023-02-04T04:45:20.979Z,2.63
2023-02-04T04:47:23.131Z,2.80
2023-02-04T04:49:25.466Z,2.57
2023-02-04T04:51:28.080Z,2.53
2023-02-04T04:53:30.449Z,2.80
2023-02-04T04:55:32.868Z,2.60
2023-02-04T04:57:35.134Z,3.00
2023-02-04T04:59:37.314Z,3.27
2023-02-04T05:01:39.683Z,3.10
2023-02-04T05:03:41.894Z,3.10
2023-02-04T05:05:44.377Z,2.73
2023-02-04T05:07:46.521Z,2.50
2023-02-04T05:09:48.665Z,2.43
2023-02-04T05:11:50.887Z,2.60
2023-02-04T05:13:53.068Z,2.63
2023-02-04T05:15:55.323Z,2.27
2023-02-04T05:17:58.465Z,2.73
2023-02-04T05:20:00.674Z,2.63
2023-02-04T05:22:02.989Z,3.93
2023-02-04T05:24:06.551Z,2.80
2023-02-04T05:26:08.735Z,2.70
2023-02-04T05:28:10.921Z,3.13
2023-02-04T05:30:13.642Z,3.10
2023-02-04T05:32:15.816Z,2.87
2023-02-04T05:34:18.098Z,2.30
2023-02-04T05:36:20.726Z,2.83
2023-02-04T05:38:23.038Z,2.87
2023-02-04T05:40:25.318Z,3.00
2023-02-04T05:42:28.499Z,2.53
2023-02-04T05:44:30.720Z,2.97
2023-02-04T05:46:33.015Z,2.93
2023-02-04T05:48:35.355Z,3.23
2023-02-04T05:50:37.546Z,2.47
2023-02-04T05:52:45.476Z,2.97
2023-02-04T05:54:47.987Z,3.03
2023-02-04T05:56:51.830Z,2.90
2023-02-04T05:58:54.064Z,2.63
2023-02-04T06:00:56.231Z,3.07
2023-02-04T06:02:58.542Z,3.23
2023-02-04T06:05:00.758Z,3.20
2023-02-04T06:07:03.570Z,3.03
2023-02-04T06:09:05.762Z,2.97
2023-02-04T06:11:07.882Z,3.30
2023-02-04T06:13:10.263Z,3.20
2023-02-04T06:15:13.064Z,2.73
2023-02-04T06:17:15.158Z,3.00
2023-02-04T06:19:17.429Z,2.93
2023-02-04T06:21:19.738Z,2.73
2023-02-04T06:23:22.022Z,3.13
2023-02-04T06:25:25.146Z,2.90
2023-02-04T06:27:27.364Z,3.00
2023-02-04T06:29:29.571Z,2.97
2023-02-04T06:31:32.013Z,2.67
2023-02-04T06:33:36.691Z,3.00
2023-02-04T06:35:38.932Z,3.97
2023-02-04T06:37:41.156Z,5.37
2023-02-04T06:39:43.478Z,5.83
2023-02-04T06:41:45.697Z,5.97
2023-02-04T06:43:48.140Z,6.53
2023-02-04T06:45:51.206Z,3.37
2023-02-04T06:47:53.449Z,3.00
2023-02-04T06:49:56.088Z,2.73
2023-02-04T06:51:58.266Z,3.50
2023-02-04T06:54:00.406Z,3.40
2023-02-04T06:56:02.619Z,3.93
2023-02-04T06:58:04.829Z,3.00
2023-02-04T07:00:08.943Z,3.00
2023-02-04T07:02:12.505Z,2.73
2023-02-04T07:04:15.601Z,3.00
2023-02-04T07:06:17.847Z,2.60
2023-02-04T07:08:21.894Z,3.37
2023-02-04T07:10:24.085Z,3.00
2023-02-04T07:12:26.434Z,3.30
2023-02-04T07:14:28.694Z,3.10
2023-02-04T07:16:30.981Z,3.30
2023-02-04T07:18:33.468Z,3.47
2023-02-04T07:20:35.836Z,3.10
2023-02-04T07:22:38.439Z,3.37
2023-02-04T07:24:40.845Z,2.90
2023-02-04T07:26:42.935Z,3.00
2023-02-04T07:28:45.078Z,3.13
2023-02-04T07:30:47.213Z,3.37
2023-02-04T07:32:49.365Z,3.67
2023-02-04T07:34:51.451Z,3.40
2023-02-04T07:36:53.561Z,3.77
2023-02-04T07:38:55.784Z,3.60
2023-02-04T07:40:57.909Z,3.20
2023-02-04T07:43:00.040Z,4.17
2023-02-04T07:45:03.646Z,4.80
2023-02-04T07:47:05.834Z,4.43
2023-02-04T07:49:08.018Z,3.93
2023-02-04T07:51:10.635Z,4.20
2023-02-04T07:53:12.707Z,4.00
2023-02-04T07:55:14.891Z,3.60
2023-02-04T07:57:17.751Z,3.53
2023-02-04T07:59:21.120Z,3.20
2023-02-04T08:01:23.297Z,3.40
2023-02-04T08:03:25.310Z,2.80
2023-02-04T08:05:27.498Z,3.13
2023-02-04T08:07:29.528Z,2.37
2023-02-04T08:09:31.644Z,2.43
2023-02-04T08:11:33.671Z,2.70
2023-02-04T08:13:35.839Z,3.90
2023-02-04T08:15:38.009Z,3.50
2023-02-04T08:17:40.074Z,2.20
2023-02-04T08:19:42.137Z,2.53
2023-02-04T08:21:45.785Z,3.00
2023-02-04T08:23:47.900Z,3.23
2023-02-04T08:25:50.011Z,3.10
2023-02-04T08:27:52.061Z,3.63
2023-02-04T08:29:55.345Z,3.10
2023-02-04T08:31:57.485Z,2.70
2023-02-04T08:33:59.860Z,2.97
2023-02-04T08:36:02.053Z,2.63
2023-02-04T08:38:04.279Z,2.33
2023-02-04T08:40:06.863Z,2.57
2023-02-04T08:42:08.899Z,2.97
2023-02-04T08:44:11.021Z,2.80
2023-02-04T08:46:13.208Z,3.07
2023-02-04T08:48:15.229Z,2.47
2023-02-04T08:50:17.516Z,2.60
2023-02-04T08:52:19.550Z,2.70
2023-02-04T08:54:21.606Z,2.70
2023-02-04T08:56:23.983Z,3.00
2023-02-04T08:58:26.222Z,2.90
2023-02-04T09:00:28.853Z,2.67
2023-02-04T09:02:31.042Z,3.17
2023-02-04T09:04:33.328Z,3.40
2023-02-04T09:06:35.332Z,3.00
2023-02-04T09:08:37.797Z,3.27
2023-02-04T09:10:39.855Z,2.87
2023-02-04T09:12:42.931Z,4.27
2023-02-04T09:14:44.961Z,3.17
2023-02-04T09:16:49.032Z,3.60
2023-02-04T09:18:51.162Z,3.77
2023-02-04T09:20:53.249Z,4.43
2023-02-04T09:22:55.366Z,4.60
2023-02-04T09:24:57.515Z,5.40
2023-02-04T09:26:59.644Z,4.97
2023-02-04T09:29:01.905Z,2.43
2023-02-04T09:31:06.351Z,2.23
2023-02-04T09:33:09.768Z,2.10
2023-02-04T09:35:11.884Z,2.80
2023-02-04T09:37:13.926Z,2.30
2023-02-04T09:39:15.973Z,2.40
2023-02-04T09:41:18.217Z,2.67
2023-02-04T09:43:27.848Z,2.57
2023-02-04T09:45:32.490Z,5.73
2023-02-04T09:47:34.604Z,2.00
2023-02-04T09:49:37.139Z,2.20
2023-02-04T09:51:41.539Z,2.33
2023-02-04T09:53:43.592Z,2.07
2023-02-04T09:55:47.180Z,2.30
2023-02-04T09:57:49.425Z,1.60
2023-02-04T09:59:56.305Z,1.83
2023-02-04T10:02:01.301Z,2.23
2023-02-04T10:04:03.585Z,1.60
2023-02-04T10:06:05.968Z,1.90
2023-02-04T10:08:08.040Z,2.10
2023-02-04T10:10:18.353Z,1.70
2023-02-04T10:12:21.017Z,1.93
2023-02-04T10:14:23.501Z,1.70
2023-02-04T10:16:31.238Z,1.67
2023-02-04T10:18:34.176Z,1.70
2023-02-04T10:20:36.779Z,1.90
2023-02-04T10:22:39.269Z,2.30
2023-02-04T10:24:41.529Z,1.60
2023-02-04T10:26:43.680Z,1.80
2023-02-04T10:28:46.278Z,2.00
2023-02-04T10:30:51.071Z,2.20
2023-02-04T10:32:53.796Z,2.30
2023-02-04T10:35:00.581Z,2.00
2023-02-04T10:37:18.164Z,2.47
2023-02-04T10:39:22.712Z,2.10
2023-02-04T10:41:24.733Z,1.87
2023-02-04T10:43:26.824Z,1.63
2023-02-04T10:45:30.503Z,2.00
2023-02-04T10:47:32.632Z,2.07
2023-02-04T10:49:34.788Z,1.77
2023-02-04T10:51:36.905Z,1.93
2023-02-04T10:53:57.443Z,2.10
2023-02-04T10:55:59.764Z,2.03
2023-02-04T10:58:05.740Z,2.30
2023-02-04T11:00:22.344Z,1.80
2023-02-04T11:02:44.208Z,2.00
2023-02-04T11:04:46.235Z,1.50
2023-02-04T11:06:48.274Z,2.13
2023-02-04T11:08:53.511Z,2.23
2023-02-04T11:11:06.752Z,1.83
2023-02-04T11:13:22.643Z,2.20
2023-02-04T11:15:37.592Z,1.80
2023-02-04T11:17:39.694Z,1.67
2023-02-04T11:19:43.613Z,2.00
2023-02-04T11:21:46.174Z,2.00
2023-02-04T11:23:48.516Z,2.20
2023-02-04T11:26:02.139Z,1.93
2023-02-04T11:28:15.249Z,1.70
2023-02-04T11:30:22.147Z,1.70
2023-02-04T11:32:33.666Z,2.00
2023-02-04T11:34:51.068Z,1.80
2023-02-04T11:37:01.709Z,1.90
2023-02-04T11:39:12.557Z,1.70
2023-02-04T11:41:29.205Z,1.87
2023-02-04T11:43:34.608Z,1.60
2023-02-04T11:45:38.779Z,1.87
2023-02-04T11:47:41.687Z,1.83
2023-02-04T11:49:46.482Z,1.90
2023-02-04T11:51:48.494Z,1.60
2023-02-04T11:53:52.263Z,1.80
2023-02-04T11:55:54.346Z,2.10
2023-02-04T11:57:56.738Z,1.87
2023-02-04T12:00:00.036Z,1.90
2023-02-04T12:02:16.863Z,2.50
2023-02-04T12:04:24.615Z,2.90
2023-02-04T12:06:34.071Z,2.10
2023-02-04T12:08:36.831Z,2.27
2023-02-04T12:10:39.225Z,1.87
2023-02-04T12:12:50.086Z,2.20
2023-02-04T12:15:24.119Z,1.87
2023-02-04T12:17:26.325Z,2.37
2023-02-04T12:19:28.652Z,1.57
2023-02-04T12:21:30.745Z,1.70
2023-02-04T12:23:33.083Z,1.93
2023-02-04T12:25:35.078Z,2.20
2023-02-04T12:27:37.145Z,2.10
2023-02-04T12:29:39.158Z,2.33
2023-02-04T12:31:41.194Z,3.00
2023-02-04T12:33:43.326Z,2.47
2023-02-04T12:35:45.374Z,2.10
2023-02-04T12:37:48.460Z,2.20
2023-02-04T12:39:50.737Z,2.17
2023-02-04T12:41:52.753Z,3.10
2023-02-04T12:43:55.744Z,2.10
2023-02-04T12:45:57.877Z,1.50
2023-02-04T12:48:00.010Z,1.97
2023-02-04T12:50:02.109Z,2.47
2023-02-04T12:52:05.566Z,1.97
2023-02-04T12:54:07.621Z,2.23
2023-02-04T12:56:09.657Z,2.50
2023-02-04T12:58:11.855Z,2.80
2023-02-04T13:00:15.390Z,2.67
2023-02-04T13:02:17.641Z,2.37
2023-02-04T13:04:19.999Z,1.93
2023-02-04T13:06:22.105Z,2.30
2023-02-04T13:08:24.193Z,3.07
2023-02-04T13:10:26.593Z,2.10
2023-02-04T13:12:28.737Z,1.70
2023-02-04T13:14:32.547Z,1.90
2023-02-04T13:16:34.693Z,2.03
2023-02-04T13:18:36.732Z,4.47
2023-02-04T13:20:38.793Z,3.17
2023-02-04T13:22:40.855Z,6.10
2023-02-04T13:24:43.216Z,2.90
2023-02-04T13:26:45.323Z,2.83
2023-02-04T13:28:47.324Z,2.70
2023-02-04T13:30:49.406Z,7.20
2023-02-04T13:32:51.557Z,5.80
2023-02-04T13:34:53.615Z,3.33
2023-02-04T13:36:55.679Z,5.90
2023-02-04T13:39:00.100Z,2.40
2023-02-04T13:41:02.180Z,4.63
2023-02-04T13:43:04.250Z,2.10
2023-02-04T13:45:07.758Z,2.10
2023-02-04T13:47:09.838Z,2.00
2023-02-04T13:49:11.981Z,2.70
2023-02-04T13:51:14.211Z,2.93
2023-02-04T13:53:17.163Z,3.17
2023-02-04T13:55:19.243Z,4.33
2023-02-04T13:57:21.361Z,3.20
2023-02-04T13:59:23.382Z,2.50
2023-02-04T14:01:25.512Z,2.40
2023-02-04T14:03:29.410Z,2.50
2023-02-04T14:05:31.483Z,2.53
2023-02-04T14:07:34.197Z,2.53
2023-02-04T14:09:36.308Z,2.80
2023-02-04T14:11:38.603Z,2.27
2023-02-04T14:13:40.664Z,3.83
2023-02-04T14:15:42.707Z,4.00
2023-02-04T14:17:44.898Z,3.40
2023-02-04T14:19:47.084Z,3.10
2023-02-04T14:21:50.857Z,3.77
2023-02-04T14:23:52.928Z,3.27
2023-02-04T14:25:54.969Z,4.20
2023-02-04T14:28:00.057Z,3.10
2023-02-04T14:30:02.377Z,3.10
2023-02-04T14:32:04.841Z,2.90
2023-02-04T14:34:07.016Z,2.60
2023-02-04T14:36:09.117Z,3.17
2023-02-04T14:38:11.516Z,2.87
2023-02-04T14:40:14.846Z,3.50
2023-02-04T14:42:17.084Z,3.03
2023-02-04T14:44:20.910Z,3.50
2023-02-04T14:46:23.236Z,3.50
2023-02-04T14:48:25.316Z,3.43
2023-02-04T14:50:28.881Z,4.30
2023-02-04T14:52:30.929Z,4.17
2023-02-04T14:54:33.206Z,3.80
2023-02-04T14:56:35.669Z,3.60
2023-02-04T14:58:37.675Z,4.10
2023-02-04T15:00:39.857Z,4.00
2023-02-04T15:02:42.665Z,4.03
2023-02-04T15:04:45.225Z,3.53
2023-02-04T15:06:47.743Z,3.30
2023-02-04T15:08:49.824Z,2.60
2023-02-04T15:10:51.985Z,2.90
2023-02-04T15:12:55.415Z,2.83
2023-02-04T15:14:57.478Z,2.90
2023-02-04T15:17:01.680Z,3.53
2023-02-04T15:19:03.828Z,4.20
2023-02-04T15:21:06.002Z,2.90
2023-02-04T15:23:08.199Z,2.57
2023-02-04T15:25:10.587Z,2.20
2023-02-04T15:27:12.764Z,2.10
2023-02-04T15:29:14.864Z,2.23
2023-02-04T15:31:17.258Z,2.47
2023-02-04T15:33:19.433Z,2.60
2023-02-04T15:35:21.992Z,2.73
2023-02-04T15:37:24.142Z,2.30
2023-02-04T15:39:27.623Z,3.10
2023-02-04T15:41:29.753Z,2.37
2023-02-04T15:43:34.697Z,2.67
2023-02-04T15:45:41.412Z,3.40
2023-02-04T15:47:43.499Z,3.80
2023-02-04T15:49:45.832Z,3.20
2023-02-04T15:51:47.879Z,3.07
2023-02-04T15:53:49.997Z,3.30
2023-02-04T15:55:52.284Z,3.23
2023-02-04T15:57:54.517Z,2.60
2023-02-04T15:59:58.036Z,2.90
2023-02-04T16:02:00.105Z,3.43
2023-02-04T16:04:02.352Z,3.70
2023-02-04T16:06:05.274Z,3.10
2023-02-04T16:08:07.433Z,3.97
2023-02-04T16:10:09.889Z,4.00
2023-02-04T16:12:11.923Z,3.40
2023-02-04T16:14:13.979Z,2.63
2023-02-04T16:16:16.070Z,4.20
2023-02-04T16:18:18.197Z,5.20
2023-02-04T16:20:20.872Z,4.13
2023-02-04T16:22:23.145Z,4.10
2023-02-04T16:24:25.464Z,3.40
2023-02-04T16:26:27.933Z,3.10
2023-02-04T16:28:30.094Z,3.30
2023-02-04T16:30:32.254Z,2.50
2023-02-04T16:32:34.587Z,3.27
2023-02-04T16:34:36.647Z,2.97
2023-02-04T16:36:38.715Z,2.97
2023-02-04T16:38:43.531Z,3.33
2023-02-04T16:40:45.709Z,3.43
2023-02-04T16:42:47.844Z,3.40
2023-02-04T16:44:49.923Z,3.70
2023-02-04T16:46:52.108Z,4.60
2023-02-04T16:48:54.838Z,4.73
2023-02-04T16:50:57.035Z,4.83
2023-02-04T16:52:59.061Z,4.53
2023-02-04T16:55:01.493Z,5.70
2023-02-04T16:57:03.843Z,4.90
2023-02-04T16:59:05.921Z,4.60
2023-02-04T17:01:08.052Z,5.17
2023-02-04T17:03:14.218Z,5.03
2023-02-04T17:05:16.390Z,6.20
2023-02-04T17:07:18.446Z,6.63
2023-02-04T17:09:20.508Z,6.80
2023-02-04T17:11:29.059Z,5.83
2023-02-04T17:13:31.170Z,7.30
2023-02-04T17:15:33.794Z,6.53
2023-02-04T17:17:36.047Z,7.40
2023-02-04T17:19:38.115Z,7.07
2023-02-04T17:21:40.848Z,7.00
2023-02-04T17:23:43.592Z,6.07
2023-02-04T17:25:45.585Z,6.20
2023-02-04T17:27:50.514Z,7.47
2023-02-04T17:29:52.644Z,6.60
2023-02-04T17:31:55.925Z,9.30
2023-02-04T17:33:58.172Z,7.23
2023-02-04T17:36:01.418Z,5.27
2023-02-04T17:38:03.618Z,8.57
2023-02-04T17:40:07.173Z,7.00
2023-02-04T17:42:09.230Z,5.80
2023-02-04T17:44:17.019Z,5.80
2023-02-04T17:46:19.197Z,5.17
2023-02-04T17:48:21.722Z,9.50
2023-02-04T17:50:23.759Z,6.30
2023-02-04T17:52:26.708Z,6.53
2023-02-04T17:54:28.764Z,4.80
2023-02-04T17:56:31.311Z,4.30
2023-02-04T17:58:36.276Z,5.43
2023-02-04T18:00:38.909Z,5.53
2023-02-04T18:02:41.533Z,8.10
2023-02-04T18:04:43.825Z,10.47
2023-02-04T18:06:46.999Z,10.00
2023-02-04T18:08:50.456Z,9.60
2023-02-04T18:10:54.460Z,10.07
2023-02-04T18:12:57.284Z,9.47
2023-02-04T18:14:59.472Z,9.40
2023-02-04T18:17:06.914Z,8.40
2023-02-04T18:19:19.150Z,8.70
2023-02-04T18:21:21.594Z,9.77
2023-02-04T18:23:24.168Z,9.73
2023-02-04T18:25:26.309Z,9.93
2023-02-04T18:27:32.018Z,9.20
2023-02-04T18:29:39.196Z,8.87
2023-02-04T18:31:50.057Z,8.27
2023-02-04T18:33:52.402Z,8.37
2023-02-04T18:36:00.926Z,8.57
2023-02-04T18:38:16.270Z,9.70
2023-02-04T18:40:26.706Z,10.03
2023-02-04T18:42:28.876Z,7.07
2023-02-04T18:44:36.376Z,9.33
2023-02-04T18:46:44.570Z,9.00
2023-02-04T18:48:53.083Z,8.83
2023-02-04T18:50:55.348Z,8.47
2023-02-04T18:53:01.990Z,6.90
2023-02-04T18:55:19.109Z,6.53
2023-02-04T18:57:36.853Z,6.20
2023-02-04T18:59:40.056Z,6.33
2023-02-04T19:01:42.642Z,6.20
2023-02-04T19:03:52.532Z,5.60
2023-02-04T19:05:58.515Z,6.53
2023-02-04T19:08:06.789Z,5.97
2023-02-04T19:10:29.978Z,6.90
2023-02-04T19:12:32.443Z,6.30
2023-02-04T19:14:38.850Z,8.63
2023-02-04T19:16:41.567Z,7.90
2023-02-04T19:18:43.957Z,7.70
2023-02-04T19:20:46.328Z,7.07
2023-02-04T19:22:54.964Z,7.30
2023-02-04T19:25:16.955Z,6.23
2023-02-04T19:27:29.222Z,8.40
2023-02-04T19:29:38.076Z,7.70
2023-02-04T19:31:41.787Z,8.83
2023-02-04T19:33:45.458Z,7.20
2023-02-04T19:35:49.067Z,7.30
2023-02-04T19:37:55.676Z,8.00
2023-02-04T19:39:57.873Z,7.83
2023-02-04T19:42:00.169Z,7.90
2023-02-04T19:44:15.038Z,8.87
2023-02-04T19:46:23.995Z,8.23
2023-02-04T19:48:37.434Z,8.50
2023-02-04T19:50:39.685Z,7.30
2023-02-04T19:52:48.676Z,6.10
2023-02-04T19:54:50.836Z,6.80
2023-02-04T19:56:54.544Z,7.37
2023-02-04T19:58:57.901Z,7.90
2023-02-04T20:01:02.553Z,6.47
2023-02-04T20:03:15.697Z,6.63
2023-02-04T20:05:21.463Z,6.00
2023-02-04T20:07:25.762Z,5.87
2023-02-04T20:09:30.748Z,7.03
2023-02-04T20:11:35.708Z,6.90
2023-02-04T20:13:37.902Z,7.43
2023-02-04T20:15:40.137Z,7.83
2023-02-04T20:17:46.966Z,7.37
2023-02-04T20:19:50.015Z,7.53
2023-02-04T20:22:13.556Z,8.60
2023-02-04T20:24:18.002Z,10.57
2023-02-04T20:26:22.463Z,8.83
2023-02-04T20:28:40.224Z,8.30
2023-02-04T20:30:43.112Z,12.63
2023-02-04T20:32:47.040Z,13.60
2023-02-04T20:34:49.404Z,10.40
2023-02-04T20:36:52.449Z,7.70
2023-02-04T20:39:06.049Z,7.90
2023-02-04T20:41:20.238Z,6.53
2023-02-04T20:43:24.191Z,7.33
2023-02-04T20:45:29.106Z,6.53
2023-02-04T20:47:34.742Z,7.43
2023-02-04T20:49:40.819Z,7.50
2023-02-04T20:51:43.031Z,8.00
2023-02-04T20:53:52.916Z,7.40
2023-02-04T20:56:03.938Z,7.47
2023-02-04T20:58:14.719Z,8.70
2023-02-04T21:00:30.261Z,8.27
2023-02-04T21:02:33.765Z,8.90
2023-02-04T21:04:44.095Z,7.93
2023-02-04T21:06:46.877Z,8.50
2023-02-04T21:08:51.694Z,7.27
2023-02-04T21:10:56.665Z,8.60
2023-02-04T21:13:01.273Z,8.20
2023-02-04T21:15:03.909Z,8.80
2023-02-04T21:17:06.194Z,8.20
2023-02-04T21:19:10.108Z,8.77
2023-02-04T21:21:12.702Z,8.57
2023-02-04T21:23:15.028Z,9.90
2023-02-04T21:25:17.402Z,10.87
2023-02-04T21:27:22.102Z,11.40
2023-02-04T21:29:26.076Z,11.70
2023-02-04T21:31:28.708Z,11.70
2023-02-04T21:33:31.292Z,11.20
2023-02-04T21:35:33.708Z,11.00
2023-02-04T21:37:35.986Z,9.77
2023-02-04T21:39:38.160Z,11.20
2023-02-04T21:41:40.438Z,11.83
2023-02-04T21:43:43.322Z,11.13
2023-02-04T21:45:45.581Z,14.07
2023-02-04T21:47:48.828Z,14.93
2023-02-04T21:49:51.040Z,16.90
2023-02-04T21:51:53.178Z,19.53
2023-02-04T21:53:55.339Z,19.00
2023-02-04T21:55:59.318Z,18.77
2023-02-04T21:58:01.810Z,18.80
2023-02-04T22:00:06.139Z,17.57
2023-02-04T22:02:09.833Z,16.77
2023-02-04T22:04:12.143Z,16.50
2023-02-04T22:06:14.353Z,16.37
2023-02-04T22:08:16.553Z,16.23
2023-02-04T22:10:21.833Z,15.70
2023-02-04T22:12:24.063Z,15.13
2023-02-04T22:14:26.317Z,11.90
2023-02-04T22:16:29.389Z,14.23
2023-02-04T22:18:31.620Z,13.50
2023-02-04T22:20:33.864Z,11.70
2023-02-04T22:22:36.124Z,11.10
2023-02-04T22:24:38.348Z,12.50
2023-02-04T22:26:40.524Z,12.43
2023-02-04T22:28:42.692Z,12.27
2023-02-04T22:30:44.966Z,11.90
2023-02-04T22:32:47.167Z,11.40
2023-02-04T22:34:49.413Z,11.70
2023-02-04T22:36:51.617Z,13.20
2023-02-04T22:38:53.763Z,10.77
2023-02-04T22:40:55.944Z,11.10
2023-02-04T22:42:58.497Z,11.00
2023-02-04T22:45:02.595Z,11.33
2023-02-04T22:47:06.110Z,11.80
2023-02-04T22:49:08.308Z,11.40
2023-02-04T22:51:11.709Z,11.20
2023-02-04T22:53:13.861Z,11.00
2023-02-04T22:55:16.136Z,11.10
2023-02-04T22:57:18.378Z,11.23
2023-02-04T22:59:20.721Z,12.33
2023-02-04T23:01:22.992Z,13.27
2023-02-04T23:03:25.216Z,13.83
2023-02-04T23:05:27.512Z,13.20
2023-02-04T23:07:29.792Z,12.53
2023-02-04T23:09:32.704Z,13.70
2023-02-04T23:11:35.241Z,12.90
2023-02-04T23:13:38.720Z,14.40
2023-02-04T23:15:40.930Z,13.73
2023-02-04T23:17:43.251Z,12.90
2023-02-04T23:19:45.604Z,13.40
2023-02-04T23:21:47.780Z,13.73
2023-02-04T23:23:50.832Z,14.93
2023-02-04T23:25:53.319Z,14.87
2023-02-04T23:27:55.656Z,13.60
2023-02-04T23:29:57.859Z,14.20
2023-02-04T23:32:00.090Z,12.30
2023-02-04T23:34:02.296Z,14.97
2023-02-04T23:36:05.197Z,14.00
2023-02-04T23:38:07.351Z,13.67
2023-02-04T23:40:10.196Z,12.60
2023-02-04T23:42:12.662Z,13.87
2023-02-04T23:44:14.984Z,13.93
2023-02-04T23:46:17.158Z,13.70
2023-02-04T23:48:19.361Z,12.37
2023-02-04T23:50:21.733Z,12.77
2023-02-04T23:52:23.931Z,15.00
2023-02-04T23:54:26.144Z,11.57
2023-02-04T23:56:28.640Z,13.30
2023-02-04T23:58:30.839Z,12.90
